createdAt,value
2022-12-25T00:00:44.604Z,23.70
2022-12-25T00:03:47.373Z,28.23
2022-12-25T00:06:49.982Z,21.60
2022-12-25T00:09:52.608Z,31.25
2022-12-25T00:12:56.554Z,30.02
2022-12-25T00:15:59.160Z,24.95
2022-12-25T00:19:01.840Z,24.25
2022-12-25T00:22:04.424Z,29.10
2022-12-25T00:25:07.385Z,30.38
2022-12-25T00:28:11.321Z,24.83
2022-12-25T00:31:14.807Z,28.23
2022-12-25T00:34:17.440Z,28.42
2022-12-25T00:37:19.980Z,30.27
2022-12-25T00:40:22.611Z,33.53
2022-12-25T00:43:26.530Z,34.85
2022-12-25T00:46:29.088Z,32.28
2022-12-25T00:49:31.744Z,30.27
2022-12-25T00:52:34.328Z,36.00
2022-12-25T00:55:36.900Z,31.63
2022-12-25T00:58:40.872Z,35.97
2022-12-25T01:01:43.584Z,29.40
2022-12-25T01:04:46.285Z,28.95
2022-12-25T01:07:48.821Z,36.63
2022-12-25T01:10:54.701Z,29.88
2022-12-25T01:13:58.905Z,16.55
2022-12-25T01:17:01.449Z,25.30
2022-12-25T01:20:04.483Z,21.88
2022-12-25T01:23:07.357Z,25.45
2022-12-25T01:26:11.077Z,23.83
2022-12-25T01:29:14.969Z,25.23
2022-12-25T01:32:17.503Z,26.35
2022-12-25T01:35:20.048Z,31.50
2022-12-25T01:38:22.601Z,24.27
2022-12-25T01:41:25.813Z,18.27
2022-12-25T01:45:17.345Z,20.63
2022-12-25T01:48:23.023Z,18.23
2022-12-25T01:51:27.238Z,27.58
2022-12-25T01:54:31.403Z,27.58
2022-12-25T01:57:35.536Z,27.45
2022-12-25T02:00:38.173Z,24.40
2022-12-25T02:03:42.643Z,33.75
2022-12-25T02:06:45.226Z,25.83
2022-12-25T02:09:47.850Z,31.27
2022-12-25T02:12:50.523Z,25.10
2022-12-25T02:15:56.461Z,19.95
2022-12-25T02:19:02.178Z,20.17
2022-12-25T02:22:08.191Z,29.15
2022-12-25T02:25:18.001Z,19.42
2022-12-25T02:28:22.790Z,12.93
2022-12-25T02:31:30.217Z,17.58
2022-12-25T02:34:35.015Z,17.83
2022-12-25T02:37:39.317Z,22.45
2022-12-25T02:40:42.015Z,20.05
2022-12-25T02:44:03.540Z,16.52
2022-12-25T02:47:23.877Z,18.05
2022-12-25T02:50:44.200Z,20.13
2022-12-25T02:54:04.442Z,23.80
2022-12-25T02:57:23.044Z,21.45
2022-12-25T03:00:44.631Z,18.27
2022-12-25T03:04:05.056Z,27.85
2022-12-25T03:07:09.116Z,29.42
2022-12-25T03:10:29.666Z,28.67
2022-12-25T03:13:33.962Z,27.35
2022-12-25T03:16:52.914Z,35.13
2022-12-25T03:20:13.306Z,32.65
2022-12-25T03:23:34.161Z,35.53
2022-12-25T03:26:54.541Z,34.70
2022-12-25T03:30:14.782Z,30.38
2022-12-25T03:33:43.942Z,31.15
2022-12-25T03:36:49.998Z,28.25
2022-12-25T03:40:13.838Z,38.08
2022-12-25T03:43:38.744Z,30.83
2022-12-25T03:47:02.171Z,30.73
2022-12-25T03:50:25.935Z,19.35
2022-12-25T03:53:47.865Z,27.25
2022-12-25T03:57:08.075Z,28.08
2022-12-25T04:00:29.322Z,27.13
2022-12-25T04:03:49.753Z,31.95
2022-12-25T04:07:11.111Z,29.40
2022-12-25T04:10:31.619Z,28.67
2022-12-25T04:13:52.010Z,26.30
2022-12-25T04:17:12.326Z,31.08
2022-12-25T04:20:32.599Z,22.35
2022-12-25T04:23:54.249Z,31.95
2022-12-25T04:27:14.608Z,27.17
2022-12-25T04:30:34.956Z,22.85
2022-12-25T04:33:55.295Z,33.42
2022-12-25T04:36:57.989Z,31.60
2022-12-25T04:40:01.878Z,33.03
2022-12-25T04:43:04.467Z,33.13
2022-12-25T04:46:07.184Z,26.88
2022-12-25T04:49:09.820Z,28.67
2022-12-25T04:52:12.344Z,25.85
2022-12-25T04:55:16.297Z,19.13
2022-12-25T04:58:18.856Z,21.35
2022-12-25T05:01:21.492Z,25.65
2022-12-25T05:04:24.160Z,17.88
2022-12-25T05:07:26.806Z,21.13
2022-12-25T05:10:30.728Z,23.55
2022-12-25T05:13:33.271Z,15.35
2022-12-25T05:16:35.886Z,19.75
2022-12-25T05:19:38.548Z,22.30
2022-12-25T05:22:42.853Z,12.68
2022-12-25T05:25:46.787Z,15.60
2022-12-25T05:28:49.571Z,12.98
2022-12-25T05:31:53.185Z,14.05
2022-12-25T05:34:55.777Z,15.95
2022-12-25T05:37:58.306Z,15.55
2022-12-25T05:41:02.186Z,18.75
2022-12-25T05:44:05.097Z,15.27
2022-12-25T05:47:07.847Z,20.27
2022-12-25T05:50:10.768Z,14.57
2022-12-25T05:53:13.956Z,16.95
2022-12-25T05:56:17.890Z,23.75
2022-12-25T05:59:20.493Z,19.67
2022-12-25T06:02:23.196Z,20.33
2022-12-25T06:05:25.781Z,23.95
2022-12-25T06:08:28.328Z,22.75
2022-12-25T06:11:32.270Z,21.85
2022-12-25T06:14:35.063Z,27.77
2022-12-25T06:17:37.666Z,20.75
2022-12-25T06:20:41.210Z,21.80
2022-12-25T06:23:43.861Z,25.60
2022-12-25T06:26:47.905Z,21.58
2022-12-25T06:29:50.431Z,24.35
2022-12-25T06:32:52.990Z,27.63
2022-12-25T06:35:55.525Z,23.42
2022-12-25T06:39:00.641Z,23.45
2022-12-25T06:42:04.722Z,24.58
2022-12-25T06:45:08.098Z,28.25
2022-12-25T06:48:10.650Z,26.60
2022-12-25T06:51:13.592Z,27.83
2022-12-25T06:54:16.177Z,29.67
2022-12-25T06:57:20.139Z,28.65
2022-12-25T07:00:22.872Z,36.80
2022-12-25T07:03:25.583Z,40.67
2022-12-25T07:06:28.993Z,32.60
2022-12-25T07:09:31.614Z,31.10
2022-12-25T07:12:35.629Z,35.78
2022-12-25T07:15:38.219Z,38.58
2022-12-25T07:18:41.195Z,32.13
2022-12-25T07:21:43.781Z,32.15
2022-12-25T07:24:46.382Z,30.92
2022-12-25T07:27:50.640Z,32.33
2022-12-25T07:30:53.183Z,34.30
2022-12-25T07:33:55.794Z,37.75
2022-12-25T07:36:58.320Z,32.28
2022-12-25T07:40:00.884Z,33.80
2022-12-25T07:43:04.775Z,35.05
2022-12-25T07:46:07.377Z,31.95
2022-12-25T07:49:10.019Z,33.97
2022-12-25T07:52:12.593Z,22.92
2022-12-25T07:55:15.207Z,22.63
2022-12-25T07:58:23.287Z,33.28
2022-12-25T08:01:27.122Z,24.95
2022-12-25T08:04:29.964Z,25.75
2022-12-25T08:07:32.509Z,20.67
2022-12-25T08:10:35.057Z,21.42
2022-12-25T08:13:39.174Z,20.27
2022-12-25T08:16:42.331Z,17.42
2022-12-25T08:19:45.005Z,16.55
2022-12-25T08:22:48.383Z,16.33
2022-12-25T08:25:50.967Z,11.43
2022-12-25T08:28:54.898Z,16.83
2022-12-25T08:31:57.565Z,15.73
2022-12-25T08:35:00.131Z,15.13
2022-12-25T08:38:02.734Z,16.67
2022-12-25T08:41:05.436Z,19.63
2022-12-25T08:44:09.336Z,16.17
2022-12-25T08:47:12.216Z,16.67
2022-12-25T08:50:14.807Z,17.23
2022-12-25T08:53:17.684Z,21.48
2022-12-25T08:56:20.325Z,17.40
2022-12-25T08:59:24.321Z,12.68
2022-12-25T09:02:27.120Z,12.82
2022-12-25T09:05:29.916Z,11.73
2022-12-25T09:08:32.512Z,9.85
2022-12-25T09:11:35.052Z,10.18
2022-12-25T09:14:38.984Z,9.15
2022-12-25T09:17:41.576Z,8.32
2022-12-25T09:20:44.136Z,7.03
2022-12-25T09:23:46.758Z,9.20
2022-12-25T09:26:49.382Z,9.55
2022-12-25T09:29:53.309Z,8.85
2022-12-25T09:32:55.844Z,6.72
2022-12-25T09:35:59.319Z,10.15
2022-12-25T09:39:01.847Z,10.75
2022-12-25T09:42:06.271Z,11.73
2022-12-25T09:45:13.021Z,14.50
2022-12-25T09:48:15.832Z,15.35
2022-12-25T09:51:18.375Z,6.82
2022-12-25T09:54:22.317Z,10.10
2022-12-25T09:57:25.398Z,15.30
2022-12-25T10:00:36.450Z,11.00
2022-12-25T10:03:49.747Z,9.50
2022-12-25T10:06:58.311Z,17.88
2022-12-25T10:10:12.078Z,12.00
2022-12-25T10:13:37.138Z,12.55
2022-12-25T10:16:44.781Z,15.13
2022-12-25T10:19:49.041Z,15.68
2022-12-25T10:22:53.757Z,16.75
2022-12-25T10:25:56.290Z,15.55
2022-12-25T10:28:59.921Z,12.05
2022-12-25T10:32:03.951Z,14.60
2022-12-25T10:35:07.509Z,21.08
2022-12-25T10:38:12.675Z,13.73
2022-12-25T10:41:22.186Z,14.90
2022-12-25T10:44:25.306Z,16.67
2022-12-25T10:47:31.329Z,16.02
2022-12-25T10:50:34.713Z,13.05
2022-12-25T10:53:39.638Z,14.00
2022-12-25T10:56:42.179Z,13.05
2022-12-25T10:59:45.573Z,15.65
2022-12-25T11:02:49.709Z,10.48
2022-12-25T11:05:52.405Z,18.77
2022-12-25T11:08:56.399Z,17.00
2022-12-25T11:11:58.963Z,11.38
2022-12-25T11:15:04.020Z,15.57
2022-12-25T11:18:19.180Z,22.13
2022-12-25T11:21:24.090Z,16.30
2022-12-25T11:24:28.817Z,15.55
2022-12-25T11:27:33.455Z,16.92
2022-12-25T11:30:36.068Z,17.42
2022-12-25T11:33:42.053Z,19.00
2022-12-25T11:36:45.440Z,21.80
2022-12-25T11:39:48.008Z,12.77
2022-12-25T11:42:51.379Z,15.75
2022-12-25T11:45:54.919Z,14.82
2022-12-25T11:49:00.470Z,18.67
2022-12-25T11:52:06.496Z,19.40
2022-12-25T11:55:16.258Z,17.75
2022-12-25T11:58:20.720Z,15.10
2022-12-25T12:01:27.552Z,21.35
2022-12-25T12:04:40.243Z,19.15
2022-12-25T12:07:54.296Z,17.42
2022-12-25T12:11:15.910Z,20.73
2022-12-25T12:14:24.323Z,20.58
2022-12-25T12:17:27.170Z,17.85
2022-12-25T12:20:32.211Z,15.65
2022-12-25T12:23:36.692Z,17.95
2022-12-25T12:26:40.935Z,16.48
2022-12-25T12:29:44.508Z,17.55
2022-12-25T12:32:50.488Z,16.13
2022-12-25T12:35:54.367Z,22.42
2022-12-25T12:38:57.945Z,23.13
2022-12-25T12:42:00.570Z,17.80
2022-12-25T12:45:08.887Z,20.90
2022-12-25T12:48:17.775Z,21.13
2022-12-25T12:51:29.863Z,24.58
2022-12-25T12:54:32.465Z,19.40
2022-12-25T12:57:39.547Z,20.52
2022-12-25T13:00:45.513Z,19.27
2022-12-25T13:04:01.659Z,20.60
2022-12-25T13:07:11.143Z,18.40
2022-12-25T13:10:19.804Z,16.20
2022-12-25T13:13:24.015Z,18.55
2022-12-25T13:16:28.270Z,19.52
2022-12-25T13:19:30.997Z,27.60
2022-12-25T13:22:35.805Z,22.80
2022-12-25T13:25:38.370Z,22.83
2022-12-25T13:28:40.961Z,22.42
2022-12-25T13:31:43.612Z,19.90
2022-12-25T13:34:46.192Z,20.00
2022-12-25T13:37:50.121Z,19.25
2022-12-25T13:41:07.314Z,24.80
2022-12-25T13:44:15.937Z,30.77
2022-12-25T13:47:24.113Z,20.42
2022-12-25T13:50:27.691Z,26.08
2022-12-25T13:53:31.675Z,25.20
2022-12-25T13:56:34.253Z,27.27
2022-12-25T13:59:37.687Z,28.70
2022-12-25T14:02:40.420Z,23.35
2022-12-25T14:05:43.806Z,23.80
2022-12-25T14:08:47.898Z,32.05
2022-12-25T14:11:51.124Z,31.63
2022-12-25T14:14:53.772Z,29.60
2022-12-25T14:17:56.409Z,24.63
2022-12-25T14:21:00.730Z,26.85
2022-12-25T14:24:05.173Z,28.17
2022-12-25T14:27:08.691Z,31.05
2022-12-25T14:30:13.757Z,32.22
2022-12-25T14:33:17.278Z,36.75
2022-12-25T14:36:19.845Z,31.45
2022-12-25T14:39:34.776Z,30.88
2022-12-25T14:42:37.383Z,29.35
2022-12-25T14:45:40.055Z,35.55
2022-12-25T14:48:43.521Z,31.45
2022-12-25T14:51:46.053Z,29.70
2022-12-25T14:54:51.279Z,30.40
2022-12-25T14:57:55.455Z,30.33
2022-12-25T15:00:59.286Z,29.90
2022-12-25T15:04:06.821Z,31.50
2022-12-25T15:10:59.738Z,31.70
2022-12-25T15:13:49.659Z,31.48
2022-12-25T15:16:53.042Z,29.60
2022-12-25T15:19:55.689Z,38.72
2022-12-25T15:23:19.001Z,34.63
2022-12-25T15:26:23.167Z,34.75
2022-12-25T15:29:52.069Z,36.75
2022-12-25T15:32:48.267Z,30.00
2022-12-25T15:35:50.828Z,40.67
2022-12-25T15:38:53.467Z,30.35
2022-12-25T15:42:12.751Z,38.90
2022-12-25T15:45:20.167Z,38.53
2022-12-25T15:48:22.711Z,35.40
2022-12-25T15:51:25.290Z,36.65
2022-12-25T15:54:28.019Z,32.25
2022-12-25T15:57:33.104Z,36.17
2022-12-25T16:00:35.765Z,33.60
2022-12-25T16:03:38.411Z,30.45
2022-12-25T16:06:41.016Z,34.83
2022-12-25T16:09:43.607Z,30.48
2022-12-25T16:12:47.712Z,30.73
2022-12-25T16:15:50.313Z,35.10
2022-12-25T16:18:52.921Z,37.63
2022-12-25T16:21:55.680Z,36.67
2022-12-25T16:24:58.256Z,47.17
2022-12-25T16:28:03.482Z,47.85
2022-12-25T16:31:06.465Z,40.05
2022-12-25T16:34:09.259Z,38.55
2022-12-25T16:37:12.832Z,35.63
2022-12-25T16:40:15.507Z,35.45
2022-12-25T16:43:23.901Z,42.53
2022-12-25T16:46:27.015Z,32.67
2022-12-25T16:49:29.595Z,39.35
2022-12-25T16:52:32.733Z,42.15
2022-12-25T16:55:36.750Z,41.80
2022-12-25T16:58:40.720Z,32.65
2022-12-25T17:01:43.902Z,46.97
2022-12-25T17:04:46.588Z,44.05
2022-12-25T17:07:49.133Z,46.20
2022-12-25T17:10:51.656Z,49.83
2022-12-25T17:13:55.576Z,44.28
2022-12-25T17:16:58.106Z,34.90
2022-12-25T17:20:00.640Z,34.70
2022-12-25T17:23:03.215Z,34.95
2022-12-25T17:26:06.284Z,29.85
2022-12-25T17:29:10.301Z,35.85
2022-12-25T17:32:12.935Z,32.92
2022-12-25T17:35:15.841Z,33.25
2022-12-25T17:38:18.370Z,91.15
2022-12-25T17:41:21.024Z,67.50
2022-12-25T17:44:25.243Z,46.33
2022-12-25T17:47:27.844Z,46.60
2022-12-25T17:50:34.562Z,38.97
2022-12-25T17:53:40.876Z,53.92
2022-12-25T17:56:43.411Z,45.47
2022-12-25T17:59:47.378Z,48.35
2022-12-25T18:02:50.145Z,48.25
2022-12-25T18:05:52.795Z,49.15
2022-12-25T18:08:55.414Z,43.30
2022-12-25T18:11:57.976Z,65.05
2022-12-25T18:15:02.404Z,45.38
2022-12-25T18:18:05.357Z,54.20
2022-12-25T18:21:08.328Z,57.35
2022-12-25T18:24:10.881Z,43.42
2022-12-25T18:27:13.457Z,45.40
2022-12-25T18:30:17.715Z,48.15
2022-12-25T18:33:20.279Z,44.58
2022-12-25T18:36:24.988Z,46.67
2022-12-25T18:39:27.527Z,53.00
2022-12-25T18:42:43.233Z,53.05
2022-12-25T18:45:47.229Z,53.38
2022-12-25T18:48:49.829Z,58.55
2022-12-25T18:51:52.420Z,56.67
2022-12-25T18:54:54.962Z,63.38
2022-12-25T18:57:57.644Z,64.95
2022-12-25T19:01:01.723Z,67.25
2022-12-25T19:04:06.062Z,65.20
2022-12-25T19:07:08.612Z,68.93
2022-12-25T19:10:11.376Z,63.15
2022-12-25T19:13:13.904Z,70.80
2022-12-25T19:16:17.966Z,72.28
2022-12-25T19:19:20.515Z,75.50
2022-12-25T19:22:23.105Z,74.30
2022-12-25T19:25:25.648Z,67.63
2022-12-25T19:28:28.216Z,74.90
2022-12-25T19:31:32.153Z,78.13
2022-12-25T19:34:34.758Z,70.65
2022-12-25T19:37:37.330Z,58.05
2022-12-25T19:40:40.202Z,58.42
2022-12-25T19:43:43.126Z,65.88
2022-12-25T19:46:47.049Z,57.72
2022-12-25T19:49:52.965Z,59.28
2022-12-25T19:52:56.123Z,63.03
2022-12-25T19:56:01.986Z,77.72
2022-12-25T19:59:04.597Z,68.20
2022-12-25T20:02:09.864Z,56.38
2022-12-25T20:05:12.547Z,63.92
2022-12-25T20:08:15.120Z,69.65
2022-12-25T20:11:17.747Z,64.70
2022-12-25T20:14:20.432Z,67.07
2022-12-25T20:17:24.384Z,75.85
2022-12-25T20:20:26.945Z,84.00
2022-12-25T20:23:29.546Z,68.47
2022-12-25T20:26:32.348Z,69.65
2022-12-25T20:29:34.949Z,58.50
2022-12-25T20:32:38.887Z,76.88
2022-12-25T20:35:45.694Z,72.03
2022-12-25T20:38:48.224Z,57.47
2022-12-25T20:41:50.820Z,62.75
2022-12-25T20:44:53.353Z,63.60
2022-12-25T20:47:57.289Z,67.38
2022-12-25T20:51:07.099Z,68.25
2022-12-25T20:54:09.931Z,56.58
2022-12-25T20:57:12.529Z,51.70
2022-12-25T21:00:15.890Z,64.22
2022-12-25T21:03:19.883Z,54.90
2022-12-25T21:06:22.642Z,55.60
2022-12-25T21:09:25.201Z,51.25
2022-12-25T21:12:27.825Z,44.15
2022-12-25T21:15:30.442Z,48.17
2022-12-25T21:18:34.548Z,47.22
2022-12-25T21:21:42.461Z,48.30
2022-12-25T21:24:45.040Z,42.63
2022-12-25T21:27:47.625Z,49.00
2022-12-25T21:30:50.338Z,50.47
2022-12-25T21:33:53.912Z,40.08
2022-12-25T21:36:56.602Z,40.42
2022-12-25T21:39:59.233Z,37.88
2022-12-25T21:43:01.904Z,37.20
2022-12-25T21:46:05.389Z,32.03
2022-12-25T21:49:09.965Z,28.80
2022-12-25T21:52:12.036Z,40.35
2022-12-25T21:55:14.753Z,32.97
2022-12-25T21:58:17.351Z,35.15
2022-12-25T22:01:19.967Z,36.50
2022-12-25T22:04:24.042Z,34.03
2022-12-25T22:07:25.661Z,31.95
2022-12-25T22:10:28.293Z,36.45
2022-12-25T22:13:48.758Z,34.08
2022-12-25T22:17:09.063Z,30.48
2022-12-25T22:20:13.991Z,32.33
2022-12-25T22:23:16.591Z,29.88
2022-12-25T22:26:21.157Z,31.13
2022-12-25T22:29:23.817Z,32.05
2022-12-25T22:32:26.618Z,38.78
2022-12-25T22:35:30.597Z,31.27
2022-12-25T22:38:33.188Z,35.22
2022-12-25T22:41:35.767Z,38.33
2022-12-25T22:44:38.475Z,32.65
2022-12-25T22:47:41.181Z,42.22
2022-12-25T22:50:45.109Z,41.83
2022-12-25T22:53:47.744Z,40.38
2022-12-25T22:56:51.458Z,45.40
2022-12-25T22:59:54.125Z,47.35
2022-12-25T23:02:56.986Z,42.05
2022-12-25T23:06:01.066Z,33.75
2022-12-25T23:09:03.895Z,42.85
2022-12-25T23:12:06.958Z,41.40
2022-12-25T23:15:09.284Z,34.30
2022-12-25T23:18:29.294Z,39.78
2022-12-25T23:21:50.856Z,37.55
2022-12-25T23:25:11.314Z,40.83
2022-12-25T23:28:13.910Z,36.58
2022-12-25T23:31:15.514Z,33.67
2022-12-25T23:34:18.145Z,30.33
2022-12-25T23:37:22.092Z,34.45
2022-12-25T23:40:24.817Z,36.75
2022-12-25T23:43:27.399Z,27.95
2022-12-25T23:46:30.007Z,25.83
2022-12-25T23:49:32.584Z,26.15
2022-12-25T23:52:36.470Z,28.42
2022-12-25T23:55:39.016Z,37.97
2022-12-25T23:58:41.630Z,27.17
